^^
TXWeather Station Historical Data
Daily Summary for May 16, 2022 Units:  English    Metric   Both
Daily Weekly Monthly Yearly Custom
  High: Low: Average:
Temperature: 96.0 °F 73.0 °F 83.8 °F
Dew Point: 77.0 °F 68.0 °F 72.3 °F
Humidity: 88% 52% 70%
Wind Speed: 15mph 0mph 5.3mph
Wind Gust: 16mph - -
Wind- - SSE
Pressure: 30.1 in 29.9 in -
Precipitation: 0.000 in    
Historical Graphs
 
 
Tabular Data for May 16, 2022
Time Temperature Dew Point Pressure Wind Wind Speed Wind Gust Humidity Rainfall Rate (Hourly) solar
00:04 78.0 °F 71.0 °F 30.0 in SSE 7 mph 8 mph 77% 0.000 in 0.00 W/m2
00:09 78.0 °F 71.0 °F 30.0 in SSE 8 mph 8 mph 77% 0.000 in 0.00 W/m2
00:14 78.0 °F 71.0 °F 30.0 in South 5 mph 6 mph 77% 0.000 in 0.00 W/m2
00:19 78.0 °F 70.0 °F 29.9 in SSE 6 mph 6 mph 77% 0.000 in 0.00 W/m2
00:24 78.0 °F 71.0 °F 29.9 in South 7 mph 7 mph 78% 0.000 in 0.00 W/m2
00:29 78.0 °F 71.0 °F 29.9 in SSE 6 mph 8 mph 78% 0.000 in 0.00 W/m2
00:34 78.0 °F 71.0 °F 29.9 in SSE 8 mph 10 mph 78% 0.000 in 0.00 W/m2
00:39 78.0 °F 71.0 °F 29.9 in South 9 mph 9 mph 79% 0.000 in 0.00 W/m2
00:44 78.0 °F 71.0 °F 29.9 in SSE 11 mph 11 mph 79% 0.000 in 0.00 W/m2
00:49 78.0 °F 71.0 °F 29.9 in SSE 9 mph 11 mph 80% 0.000 in 0.00 W/m2
00:54 78.0 °F 71.0 °F 29.9 in SSE 9 mph 9 mph 80% 0.000 in 0.00 W/m2
00:59 78.0 °F 71.0 °F 29.9 in SSE 6 mph 7 mph 80% 0.000 in 0.00 W/m2
01:04 77.0 °F 71.0 °F 30.0 in SSE 5 mph 7 mph 80% 0.000 in 0.00 W/m2
01:09 77.0 °F 71.0 °F 30.0 in South 6 mph 7 mph 80% 0.000 in 0.00 W/m2
01:14 77.0 °F 71.0 °F 30.0 in SSE 8 mph 10 mph 80% 0.000 in 0.00 W/m2
01:19 77.0 °F 71.0 °F 30.0 in SSE 7 mph 10 mph 80% 0.000 in 0.00 W/m2
01:24 77.0 °F 71.0 °F 30.0 in SSE 7 mph 7 mph 81% 0.000 in 0.00 W/m2
01:29 77.0 °F 71.0 °F 29.9 in SSE 9 mph 10 mph 81% 0.000 in 0.00 W/m2
01:34 77.0 °F 71.0 °F 29.9 in SSE 11 mph 11 mph 81% 0.000 in 0.00 W/m2
01:39 77.0 °F 71.0 °F 29.9 in South 7 mph 8 mph 81% 0.000 in 0.00 W/m2
01:44 77.0 °F 71.0 °F 30.0 in SSE 4 mph 7 mph 81% 0.000 in 0.00 W/m2
01:49 77.0 °F 70.0 °F 30.0 in South 5 mph 7 mph 81% 0.000 in 0.00 W/m2
01:54 77.0 °F 70.0 °F 30.0 in SSE 7 mph 7 mph 81% 0.000 in 0.00 W/m2
01:59 77.0 °F 70.0 °F 30.0 in SSE 5 mph 6 mph 81% 0.000 in 0.00 W/m2
02:04 77.0 °F 70.0 °F 30.0 in SSE 2 mph 6 mph 81% 0.000 in 0.00 W/m2
02:09 77.0 °F 71.0 °F 30.0 in South 2 mph 6 mph 82% 0.000 in 0.00 W/m2
02:14 77.0 °F 71.0 °F 30.0 in South 1 mph 1 mph 82% 0.000 in 0.00 W/m2
02:19 77.0 °F 71.0 °F 30.0 in WSW 3 mph 3 mph 82% 0.000 in 0.00 W/m2
02:24 76.0 °F 70.0 °F 30.0 in North 6 mph 6 mph 82% 0.000 in 0.00 W/m2
02:29 77.0 °F 71.0 °F 30.1 in North 10 mph 10 mph 82% 0.000 in 0.00 W/m2
02:34 77.0 °F 71.0 °F 30.1 in North 11 mph 13 mph 83% 0.000 in 0.00 W/m2
02:39 77.0 °F 71.0 °F 30.1 in North 8 mph 12 mph 83% 0.000 in 0.00 W/m2
02:44 77.0 °F 71.0 °F 30.1 in North 6 mph 8 mph 82% 0.000 in 0.00 W/m2
02:49 77.0 °F 71.0 °F 30.1 in NNW 9 mph 9 mph 82% 0.000 in 0.00 W/m2
02:54 77.0 °F 71.0 °F 30.1 in NNW 8 mph 12 mph 82% 0.000 in 0.00 W/m2
02:57 77.0 °F 71.0 °F 30.1 in North 5 mph 9 mph 82% 0.000 in 0.00 W/m2
03:04 77.0 °F 71.0 °F 30.1 in NNW 3 mph 9 mph 82% 0.000 in 0.00 W/m2
03:09 77.0 °F 71.0 °F 30.1 in North 5 mph 9 mph 82% 0.000 in 0.00 W/m2
03:14 77.0 °F 71.0 °F 30.0 in North 6 mph 6 mph 82% 0.000 in 0.00 W/m2
03:19 77.0 °F 71.0 °F 30.0 in North 4 mph 6 mph 82% 0.000 in 0.00 W/m2
03:24 77.0 °F 71.0 °F 30.0 in North 3 mph 4 mph 82% 0.000 in 0.00 W/m2
03:29 77.0 °F 71.0 °F 30.0 in North 2 mph 4 mph 82% 0.000 in 0.00 W/m2
03:34 76.0 °F 70.0 °F 30.0 in North 4 mph 4 mph 82% 0.000 in 0.00 W/m2
03:39 76.0 °F 70.0 °F 30.0 in North 2 mph 4 mph 82% 0.000 in 0.00 W/m2
03:44 76.0 °F 70.0 °F 30.0 in Calm   1 mph 82% 0.000 in 0.00 W/m2
03:49 76.0 °F 70.0 °F 30.0 in Calm     82% 0.000 in 0.00 W/m2
03:54 76.0 °F 70.0 °F 30.0 in Calm     81% 0.000 in 0.00 W/m2
03:59 76.0 °F 70.0 °F 30.0 in North 2 mph 2 mph 82% 0.000 in 0.00 W/m2
04:04 76.0 °F 70.0 °F 30.0 in North 2 mph 2 mph 82% 0.000 in 0.00 W/m2
04:09 76.0 °F 70.0 °F 30.0 in North 1 mph 1 mph 82% 0.000 in 0.00 W/m2
04:14 76.0 °F 70.0 °F 30.0 in North 3 mph 3 mph 82% 0.000 in 0.00 W/m2
04:19 75.0 °F 69.0 °F 30.0 in North 2 mph 3 mph 82% 0.000 in 0.00 W/m2
04:24 75.0 °F 69.0 °F 30.0 in North 1 mph 1 mph 82% 0.000 in 0.00 W/m2
04:29 75.0 °F 69.0 °F 30.0 in Calm     82% 0.000 in 0.00 W/m2
04:34 75.0 °F 69.0 °F 30.0 in Calm     82% 0.000 in 0.00 W/m2
04:39 75.0 °F 69.0 °F 30.0 in North 1 mph 1 mph 82% 0.000 in 0.00 W/m2
04:44 75.0 °F 69.0 °F 30.0 in Calm     82% 0.000 in 0.00 W/m2
04:49 75.0 °F 69.0 °F 30.0 in North 1 mph 1 mph 82% 0.000 in 0.00 W/m2
04:54 75.0 °F 69.0 °F 30.0 in Calm     82% 0.000 in 0.00 W/m2
04:59 75.0 °F 69.0 °F 30.0 in Calm     82% 0.000 in 0.00 W/m2
05:04 74.0 °F 68.0 °F 30.0 in North 1 mph 1 mph 82% 0.000 in 0.00 W/m2
05:09 74.0 °F 69.0 °F 30.0 in North 1 mph 1 mph 83% 0.000 in 0.00 W/m2
05:14 74.0 °F 69.0 °F 30.0 in Calm     83% 0.000 in 0.00 W/m2
05:19 74.0 °F 68.0 °F 30.0 in Calm     83% 0.000 in 0.00 W/m2
05:24 74.0 °F 68.0 °F 30.0 in North 1 mph 1 mph 83% 0.000 in 0.00 W/m2
05:29 74.0 °F 68.0 °F 30.0 in North 1 mph 1 mph 83% 0.000 in 0.00 W/m2
05:34 74.0 °F 68.0 °F 30.0 in Calm   1 mph 83% 0.000 in 0.00 W/m2
05:39 74.0 °F 68.0 °F 30.0 in North 2 mph 2 mph 84% 0.000 in 0.00 W/m2
05:44 74.0 °F 68.0 °F 30.0 in North 4 mph 4 mph 84% 0.000 in 0.00 W/m2
05:49 74.0 °F 68.0 °F 30.0 in North 2 mph 3 mph 84% 0.000 in 0.00 W/m2
05:54 74.0 °F 69.0 °F 30.0 in ESE 2 mph 2 mph 85% 0.000 in 0.00 W/m2
05:59 73.0 °F 69.0 °F 30.0 in SSE 6 mph 6 mph 85% 0.000 in 0.00 W/m2
06:04 73.0 °F 69.0 °F 30.0 in SSE 4 mph 6 mph 85% 0.000 in 0.00 W/m2
06:09 73.0 °F 68.0 °F 30.0 in SSE 3 mph 4 mph 85% 0.000 in 0.00 W/m2
06:14 73.0 °F 69.0 °F 30.0 in SE 5 mph 7 mph 86% 0.000 in 0.00 W/m2
06:19 73.0 °F 69.0 °F 30.0 in ESE 4 mph 7 mph 86% 0.000 in 0.00 W/m2
06:24 73.0 °F 69.0 °F 30.0 in NNE 3 mph 5 mph 86% 0.000 in 0.00 W/m2
06:29 73.0 °F 69.0 °F 30.0 in NNE 4 mph 5 mph 86% 0.000 in 0.00 W/m2
06:34 73.0 °F 69.0 °F 30.0 in East 2 mph 2 mph 87% 0.000 in 0.00 W/m2
06:39 73.0 °F 69.0 °F 30.0 in East 3 mph 3 mph 87% 0.000 in 0.00 W/m2
06:44 73.0 °F 69.0 °F 30.0 in NE 2 mph 3 mph 87% 0.000 in 5.00 W/m2
06:49 73.0 °F 69.0 °F 30.0 in ESE 3 mph 3 mph 87% 0.000 in 9.00 W/m2
06:54 73.0 °F 69.0 °F 30.0 in SE 2 mph 2 mph 87% 0.000 in 12.00 W/m2
06:59 73.0 °F 69.0 °F 30.0 in SSE 3 mph 3 mph 87% 0.000 in 16.00 W/m2
07:04 73.0 °F 69.0 °F 30.0 in South 3 mph 4 mph 87% 0.000 in 19.00 W/m2
07:09 73.0 °F 69.0 °F 30.0 in South 5 mph 5 mph 87% 0.000 in 23.00 W/m2
07:14 73.0 °F 69.0 °F 30.0 in SSE 6 mph 6 mph 87% 0.000 in 30.00 W/m2
07:19 73.0 °F 69.0 °F 30.0 in South 3 mph 6 mph 87% 0.000 in 33.00 W/m2
07:24 73.0 °F 69.0 °F 30.0 in South 4 mph 4 mph 88% 0.000 in 37.00 W/m2
07:29 73.0 °F 70.0 °F 30.0 in South 4 mph 4 mph 88% 0.000 in 40.00 W/m2
07:34 74.0 °F 70.0 °F 30.0 in South 4 mph 5 mph 88% 0.000 in 47.00 W/m2
07:39 74.0 °F 70.0 °F 30.0 in SSW 4 mph 4 mph 88% 0.000 in 53.00 W/m2
07:44 74.0 °F 70.0 °F 30.0 in SSW 4 mph 4 mph 88% 0.000 in 58.00 W/m2
07:49 74.0 °F 70.0 °F 30.0 in SSW 3 mph 3 mph 88% 0.000 in 72.00 W/m2
07:54 74.0 °F 70.0 °F 30.0 in South 4 mph 4 mph 88% 0.000 in 76.00 W/m2
07:59 75.0 °F 71.0 °F 30.0 in South 3 mph 3 mph 88% 0.000 in 81.00 W/m2
08:04 75.0 °F 71.0 °F 30.0 in South 3 mph 5 mph 88% 0.000 in 84.00 W/m2
08:09 75.0 °F 71.0 °F 30.0 in South 2 mph 5 mph 88% 0.000 in 88.00 W/m2
08:14 75.0 °F 71.0 °F 30.0 in SW 3 mph 3 mph 88% 0.000 in 88.00 W/m2
08:19 75.0 °F 72.0 °F 30.0 in South 6 mph 6 mph 88% 0.000 in 86.00 W/m2
08:24 76.0 °F 72.0 °F 30.0 in South 3 mph 5 mph 88% 0.000 in 84.00 W/m2
08:29 76.0 °F 72.0 °F 30.0 in South 3 mph 4 mph 88% 0.000 in 90.00 W/m2
08:34 76.0 °F 72.0 °F 30.0 in SSW 4 mph 5 mph 87% 0.000 in 105.00 W/m2
08:39 76.0 °F 72.0 °F 30.0 in SW 3 mph 5 mph 87% 0.000 in 109.00 W/m2
08:44 77.0 °F 72.0 °F 30.0 in SSW 4 mph 5 mph 87% 0.000 in 178.00 W/m2
08:49 77.0 °F 72.0 °F 30.0 in South 4 mph 5 mph 86% 0.000 in 178.00 W/m2
08:54 77.0 °F 72.0 °F 30.0 in SSW 8 mph 8 mph 86% 0.000 in 158.00 W/m2
08:59 77.0 °F 72.0 °F 30.0 in SSW 7 mph 8 mph 85% 0.000 in 186.00 W/m2
09:04 78.0 °F 72.0 °F 30.0 in South 11 mph 11 mph 84% 0.000 in 179.00 W/m2
09:09 78.0 °F 72.0 °F 30.0 in South 9 mph 11 mph 83% 0.000 in 193.00 W/m2
09:14 78.0 °F 72.0 °F 30.0 in South 15 mph 15 mph 81% 0.000 in 367.00 W/m2
09:19 78.0 °F 72.0 °F 30.0 in South 12 mph 15 mph 80% 0.000 in 190.00 W/m2
09:24 79.0 °F 72.0 °F 30.0 in South 14 mph 14 mph 79% 0.000 in 388.00 W/m2
09:29 79.0 °F 72.0 °F 30.0 in South 14 mph 14 mph 78% 0.000 in 424.00 W/m2
09:34 80.0 °F 71.0 °F 30.0 in SSE 11 mph 13 mph 77% 0.000 in 413.00 W/m2
09:39 80.0 °F 72.0 °F 30.0 in South 15 mph 15 mph 75% 0.000 in 468.00 W/m2
09:44 81.0 °F 72.0 °F 30.0 in South 9 mph 13 mph 75% 0.000 in 519.00 W/m2
09:49 81.0 °F 72.0 °F 30.0 in SSE 15 mph 16 mph 75% 0.000 in 492.00 W/m2
09:54 82.0 °F 72.0 °F 30.0 in South 12 mph 16 mph 73% 0.000 in 503.00 W/m2
09:59 82.0 °F 72.0 °F 30.0 in South 13 mph 15 mph 71% 0.000 in 508.00 W/m2
10:04 83.0 °F 71.0 °F 30.0 in SSE 11 mph 14 mph 70% 0.000 in 512.00 W/m2
10:09 83.0 °F 72.0 °F 30.0 in SSE 9 mph 13 mph 69% 0.000 in 540.00 W/m2
10:14 84.0 °F 72.0 °F 30.0 in SSE 9 mph 9 mph 68% 0.000 in 591.00 W/m2
10:19 84.0 °F 72.0 °F 30.0 in South 11 mph 12 mph 68% 0.000 in 647.00 W/m2
10:24 84.0 °F 72.0 °F 30.0 in South 10 mph 10 mph 66% 0.000 in 677.00 W/m2
10:29 85.0 °F 72.0 °F 30.0 in South 11 mph 11 mph 66% 0.000 in 698.00 W/m2
10:34 85.0 °F 72.0 °F 30.0 in South 6 mph 10 mph 66% 0.000 in 712.00 W/m2
10:39 86.0 °F 72.0 °F 30.0 in South 9 mph 10 mph 64% 0.000 in 729.00 W/m2
10:44 86.0 °F 72.0 °F 30.0 in West 8 mph 8 mph 63% 0.000 in 768.00 W/m2
10:49 86.0 °F 71.0 °F 30.0 in SW 3 mph 8 mph 62% 0.000 in 810.00 W/m2
10:54 86.0 °F 72.0 °F 30.0 in South 3 mph 3 mph 63% 0.000 in 812.00 W/m2
10:59 87.0 °F 72.0 °F 30.0 in WSW 4 mph 6 mph 63% 0.000 in 863.00 W/m2
11:04 87.0 °F 71.0 °F 30.0 in NNW 5 mph 6 mph 60% 0.000 in 863.00 W/m2
11:09 87.0 °F 72.0 °F 30.0 in NNE 4 mph 4 mph 61% 0.000 in 963.00 W/m2
11:14 87.0 °F 72.0 °F 30.0 in NNW 4 mph 4 mph 60% 0.000 in 986.00 W/m2
11:19 88.0 °F 72.0 °F 30.0 in West 6 mph 6 mph 59% 0.000 in 403.00 W/m2
11:24 88.0 °F 72.0 °F 30.0 in West 4 mph 8 mph 59% 0.000 in 369.00 W/m2
11:29 87.0 °F 71.0 °F 30.0 in NW 4 mph 4 mph 59% 0.000 in 1048.00 W/m2
11:34 88.0 °F 72.0 °F 30.0 in NNW 4 mph 4 mph 60% 0.000 in 988.00 W/m2
11:39 88.0 °F 72.0 °F 30.0 in WNW 8 mph 9 mph 59% 0.000 in 974.00 W/m2
11:44 88.0 °F 72.0 °F 30.0 in NNW 6 mph 8 mph 59% 0.000 in 357.00 W/m2
11:49 87.0 °F 72.0 °F 30.0 in NNW 7 mph 7 mph 60% 0.000 in 445.00 W/m2
11:54 87.0 °F 72.0 °F 30.0 in North 7 mph 8 mph 60% 0.000 in 408.00 W/m2
11:59 87.0 °F 72.0 °F 30.0 in NW 11 mph 11 mph 61% 0.000 in 353.00 W/m2
12:04 87.0 °F 72.0 °F 30.0 in West 7 mph 7 mph 61% 0.000 in 1009.00 W/m2
12:09 87.0 °F 73.0 °F 30.0 in NW 5 mph 7 mph 62% 0.000 in 1009.00 W/m2
12:14 88.0 °F 73.0 °F 30.0 in NNW 8 mph 8 mph 62% 0.000 in 983.00 W/m2
12:24 88.0 °F 72.0 °F 30.0 in SSW 4 mph 7 mph 60% 0.000 in 390.00 W/m2
12:29 88.0 °F 73.0 °F 30.0 in South 3 mph 4 mph 60% 0.000 in 452.00 W/m2
12:34 88.0 °F 72.0 °F 30.0 in West 5 mph 7 mph 59% 0.000 in 478.00 W/m2
12:39 88.0 °F 72.0 °F 30.0 in WSW 7 mph 8 mph 58% 0.000 in 1014.00 W/m2
12:44 88.0 °F 72.0 °F 30.0 in West 8 mph 9 mph 59% 0.000 in 1014.00 W/m2
12:49 88.0 °F 73.0 °F 30.0 in WNW 5 mph 8 mph 60% 0.000 in 976.00 W/m2
12:54 89.0 °F 73.0 °F 30.0 in NW 8 mph 8 mph 60% 0.000 in 1002.00 W/m2
12:59 89.0 °F 73.0 °F 30.0 in SSW 3 mph 4 mph 59% 0.000 in 1002.00 W/m2
13:04 90.0 °F 73.0 °F 30.0 in NE 4 mph 4 mph 58% 0.000 in 983.00 W/m2
13:09 90.0 °F 73.0 °F 30.0 in SSE 3 mph 3 mph 57% 0.000 in 1020.00 W/m2
13:14 91.0 °F 73.0 °F 30.0 in NNW 6 mph 7 mph 55% 0.000 in 998.00 W/m2
13:19 91.0 °F 72.0 °F 30.0 in North 4 mph 4 mph 54% 0.000 in 679.00 W/m2
13:24 91.0 °F 74.0 °F 30.0 in ENE 9 mph 9 mph 57% 0.000 in 462.00 W/m2
13:29 91.0 °F 74.0 °F 30.0 in WNW 5 mph 9 mph 57% 0.000 in 886.00 W/m2
13:34 91.0 °F 74.0 °F 30.0 in SW 8 mph 8 mph 58% 0.000 in 503.00 W/m2
13:39 91.0 °F 74.0 °F 30.0 in West 6 mph 6 mph 59% 0.000 in 944.00 W/m2
13:44 91.0 °F 75.0 °F 30.0 in NNW 9 mph 9 mph 60% 0.000 in 960.00 W/m2
13:49 91.0 °F 75.0 °F 30.0 in NW 7 mph 8 mph 59% 0.000 in 891.00 W/m2
13:54 92.0 °F 76.0 °F 30.0 in South 3 mph 4 mph 61% 0.000 in 844.00 W/m2
13:59 92.0 °F 75.0 °F 30.0 in East 4 mph 4 mph 59% 0.000 in 849.00 W/m2
14:04 92.0 °F 75.0 °F 30.0 in North 5 mph 5 mph 57% 0.000 in 896.00 W/m2
14:09 93.0 °F 75.0 °F 30.0 in WNW 7 mph 8 mph 58% 0.000 in 904.00 W/m2
14:14 93.0 °F 75.0 °F 30.0 in NW 4 mph 5 mph 56% 0.000 in 875.00 W/m2
14:19 93.0 °F 75.0 °F 30.0 in South 5 mph 5 mph 57% 0.000 in 889.00 W/m2
14:24 93.0 °F 75.0 °F 30.0 in WSW 6 mph 6 mph 57% 0.000 in 932.00 W/m2
14:29 93.0 °F 75.0 °F 30.0 in South 3 mph 4 mph 57% 0.000 in 912.00 W/m2
14:34 93.0 °F 75.0 °F 30.0 in SW 8 mph 9 mph 56% 0.000 in 895.00 W/m2
14:39 93.0 °F 75.0 °F 30.0 in North 6 mph 9 mph 56% 0.000 in 895.00 W/m2
14:44 93.0 °F 75.0 °F 30.0 in West 7 mph 7 mph 55% 0.000 in 837.00 W/m2
14:49 94.0 °F 76.0 °F 30.0 in NNE 3 mph 4 mph 56% 0.000 in 840.00 W/m2
14:54 94.0 °F 76.0 °F 30.0 in North 9 mph 11 mph 56% 0.000 in 816.00 W/m2
14:59 94.0 °F 75.0 °F 30.0 in North 5 mph 11 mph 55% 0.000 in 819.00 W/m2
15:04 94.0 °F 76.0 °F 30.0 in NW 5 mph 5 mph 56% 0.000 in 926.00 W/m2
15:09 95.0 °F 76.0 °F 30.0 in WNW 5 mph 5 mph 56% 0.000 in 940.00 W/m2
15:14 95.0 °F 75.0 °F 30.0 in WNW 5 mph 6 mph 53% 0.000 in 810.00 W/m2
15:19 95.0 °F 75.0 °F 30.0 in NNW 5 mph 5 mph 53% 0.000 in 780.00 W/m2
15:24 95.0 °F 76.0 °F 30.0 in SSW 3 mph 4 mph 55% 0.000 in 812.00 W/m2
15:29 95.0 °F 77.0 °F 30.0 in South 5 mph 5 mph 55% 0.000 in 758.00 W/m2
15:34 95.0 °F 76.0 °F 30.0 in ENE 6 mph 6 mph 54% 0.000 in 353.00 W/m2
15:39 95.0 °F 74.0 °F 30.0 in NNE 5 mph 8 mph 52% 0.000 in 352.00 W/m2
15:44 95.0 °F 74.0 °F 30.0 in NNE 6 mph 8 mph 53% 0.000 in 225.00 W/m2
15:49 94.0 °F 74.0 °F 30.0 in ENE 3 mph 4 mph 53% 0.000 in 236.00 W/m2
15:54 93.0 °F 75.0 °F 30.0 in NNE 3 mph 4 mph 56% 0.000 in 756.00 W/m2
15:59 94.0 °F 75.0 °F 30.0 in ENE 3 mph 4 mph 56% 0.000 in 763.00 W/m2
16:04 94.0 °F 74.0 °F 30.0 in ENE 4 mph 4 mph 53% 0.000 in 257.00 W/m2
16:09 94.0 °F 75.0 °F 30.0 in NE 3 mph 4 mph 54% 0.000 in 752.00 W/m2
16:14 94.0 °F 75.0 °F 30.0 in NNE 4 mph 4 mph 55% 0.000 in 744.00 W/m2
16:19 94.0 °F 74.0 °F 29.9 in NW 4 mph 5 mph 53% 0.000 in 765.00 W/m2
16:24 95.0 °F 75.0 °F 29.9 in ENE 4 mph 4 mph 53% 0.000 in 758.00 W/m2
16:29 95.0 °F 76.0 °F 29.9 in SE 6 mph 6 mph 54% 0.000 in 721.00 W/m2
16:34 96.0 °F 76.0 °F 29.9 in SSE 4 mph 4 mph 54% 0.000 in 693.00 W/m2
16:39 96.0 °F 76.0 °F 29.9 in ENE 9 mph 9 mph 53% 0.000 in 671.00 W/m2
16:44 96.0 °F 76.0 °F 29.9 in NNE 9 mph 9 mph 53% 0.000 in 629.00 W/m2
16:49 96.0 °F 76.0 °F 29.9 in NE 6 mph 8 mph 53% 0.000 in 622.00 W/m2
16:54 96.0 °F 76.0 °F 29.9 in East 6 mph 7 mph 53% 0.000 in 575.00 W/m2
16:59 96.0 °F 76.0 °F 29.9 in NNE 6 mph 6 mph 53% 0.000 in 520.00 W/m2
17:04 96.0 °F 75.0 °F 29.9 in NNE 4 mph 4 mph 52% 0.000 in 452.00 W/m2
17:09 96.0 °F 75.0 °F 29.9 in NE 4 mph 5 mph 52% 0.000 in 410.00 W/m2
17:14 95.0 °F 75.0 °F 29.9 in NNE 5 mph 5 mph 52% 0.000 in 403.00 W/m2
17:19 95.0 °F 75.0 °F 29.9 in North 5 mph 5 mph 52% 0.000 in 385.00 W/m2
17:24 95.0 °F 75.0 °F 29.9 in NNE 5 mph 5 mph 52% 0.000 in 257.00 W/m2
17:29 95.0 °F 75.0 °F 29.9 in East 3 mph 3 mph 52% 0.000 in 385.00 W/m2
17:34 95.0 °F 74.0 °F 29.9 in SE 5 mph 6 mph 52% 0.000 in 380.00 W/m2
17:39 95.0 °F 75.0 °F 29.9 in SE 5 mph 5 mph 53% 0.000 in 364.00 W/m2
17:44 95.0 °F 75.0 °F 29.9 in ESE 3 mph 5 mph 53% 0.000 in 336.00 W/m2
17:49 95.0 °F 75.0 °F 29.9 in NNE 4 mph 5 mph 53% 0.000 in 295.00 W/m2
17:54 95.0 °F 75.0 °F 29.9 in NNE 7 mph 7 mph 53% 0.000 in 271.00 W/m2
17:59 95.0 °F 75.0 °F 29.9 in NNE 8 mph 8 mph 54% 0.000 in 265.00 W/m2
18:04 95.0 °F 75.0 °F 29.9 in North 6 mph 6 mph 54% 0.000 in 295.00 W/m2
18:09 95.0 °F 75.0 °F 29.9 in North 5 mph 8 mph 54% 0.000 in 308.00 W/m2
18:14 94.0 °F 76.0 °F 29.9 in NNE 5 mph 6 mph 55% 0.000 in 290.00 W/m2
18:19 94.0 °F 75.0 °F 29.9 in NNE 5 mph 5 mph 54% 0.000 in 294.00 W/m2
18:24 94.0 °F 75.0 °F 29.9 in NE 8 mph 9 mph 54% 0.000 in 287.00 W/m2
18:29 94.0 °F 76.0 °F 29.9 in NNE 8 mph 9 mph 55% 0.000 in 272.00 W/m2
18:34 94.0 °F 75.0 °F 29.9 in NNE 7 mph 9 mph 55% 0.000 in 251.00 W/m2
18:39 94.0 °F 75.0 °F 29.9 in NNE 4 mph 4 mph 55% 0.000 in 221.00 W/m2
18:44 94.0 °F 75.0 °F 29.9 in NNE 6 mph 6 mph 55% 0.000 in 202.00 W/m2
18:49 94.0 °F 75.0 °F 29.9 in NNE 4 mph 5 mph 55% 0.000 in 179.00 W/m2
18:54 94.0 °F 75.0 °F 29.9 in NE 6 mph 8 mph 55% 0.000 in 162.00 W/m2
18:59 93.0 °F 75.0 °F 29.9 in ENE 5 mph 5 mph 55% 0.000 in 142.00 W/m2
19:04 93.0 °F 75.0 °F 29.9 in ENE 3 mph 4 mph 56% 0.000 in 128.00 W/m2
19:09 93.0 °F 75.0 °F 29.9 in ENE 4 mph 5 mph 56% 0.000 in 100.00 W/m2
19:14 93.0 °F 75.0 °F 29.9 in NE 3 mph 3 mph 56% 0.000 in 65.00 W/m2
19:19 92.0 °F 75.0 °F 29.9 in ENE 3 mph 3 mph 57% 0.000 in 62.00 W/m2
19:24 92.0 °F 75.0 °F 29.9 in ENE 4 mph 4 mph 57% 0.000 in 54.00 W/m2
19:29 92.0 °F 75.0 °F 29.9 in ENE 3 mph 4 mph 58% 0.000 in 51.00 W/m2
19:34 92.0 °F 75.0 °F 29.9 in ESE 7 mph 7 mph 58% 0.000 in 46.00 W/m2
19:39 91.0 °F 75.0 °F 29.9 in East 5 mph 7 mph 59% 0.000 in 39.00 W/m2
19:44 91.0 °F 74.0 °F 29.9 in NE 3 mph 5 mph 59% 0.000 in 30.00 W/m2
19:49 90.0 °F 75.0 °F 29.9 in ENE 3 mph 5 mph 60% 0.000 in 25.00 W/m2
19:54 90.0 °F 75.0 °F 29.9 in East 7 mph 8 mph 61% 0.000 in 18.00 W/m2
19:59 90.0 °F 75.0 °F 29.9 in East 5 mph 7 mph 62% 0.000 in 12.00 W/m2
20:04 89.0 °F 75.0 °F 29.9 in SE 5 mph 7 mph 63% 0.000 in 9.00 W/m2
20:09 89.0 °F 75.0 °F 29.9 in East 6 mph 7 mph 63% 0.000 in 5.00 W/m2
20:14 89.0 °F 75.0 °F 29.9 in ESE 7 mph 7 mph 64% 0.000 in 0.00 W/m2
20:19 88.0 °F 75.0 °F 30.0 in SE 4 mph 4 mph 65% 0.000 in 0.00 W/m2
20:24 88.0 °F 75.0 °F 30.0 in SE 7 mph 7 mph 65% 0.000 in 0.00 W/m2
20:29 88.0 °F 75.0 °F 30.0 in SE 8 mph 9 mph 66% 0.000 in 0.00 W/m2
20:34 87.0 °F 75.0 °F 30.0 in SE 7 mph 9 mph 66% 0.000 in 0.00 W/m2
20:39 87.0 °F 75.0 °F 30.0 in SE 4 mph 5 mph 67% 0.000 in 0.00 W/m2
20:44 87.0 °F 75.0 °F 30.0 in SE 5 mph 5 mph 67% 0.000 in 0.00 W/m2
20:49 87.0 °F 75.0 °F 30.0 in SE 5 mph 5 mph 67% 0.000 in 0.00 W/m2
20:54 87.0 °F 75.0 °F 30.0 in SE 5 mph 5 mph 68% 0.000 in 0.00 W/m2
20:59 86.0 °F 75.0 °F 30.0 in SE 7 mph 7 mph 68% 0.000 in 0.00 W/m2
21:04 86.0 °F 74.0 °F 30.0 in SE 6 mph 8 mph 68% 0.000 in 0.00 W/m2
21:09 86.0 °F 75.0 °F 30.0 in SE 6 mph 8 mph 69% 0.000 in 0.00 W/m2
21:14 86.0 °F 74.0 °F 30.0 in SE 8 mph 8 mph 69% 0.000 in 0.00 W/m2
21:19 86.0 °F 74.0 °F 30.0 in SE 10 mph 11 mph 69% 0.000 in 0.00 W/m2
21:24 85.0 °F 74.0 °F 30.0 in SSE 6 mph 8 mph 69% 0.000 in 0.00 W/m2
21:29 85.0 °F 74.0 °F 30.0 in SE 9 mph 9 mph 69% 0.000 in 0.00 W/m2
21:34 85.0 °F 74.0 °F 30.0 in SE 11 mph 11 mph 69% 0.000 in 0.00 W/m2
21:39 85.0 °F 73.0 °F 30.0 in SSE 9 mph 11 mph 69% 0.000 in 0.00 W/m2
21:44 85.0 °F 73.0 °F 30.0 in SE 8 mph 11 mph 69% 0.000 in 0.00 W/m2
21:49 84.0 °F 73.0 °F 30.0 in SSE 9 mph 11 mph 69% 0.000 in 0.00 W/m2
21:54 84.0 °F 73.0 °F 30.0 in SSE 10 mph 11 mph 69% 0.000 in 0.00 W/m2
21:59 84.0 °F 73.0 °F 30.0 in SSE 7 mph 11 mph 70% 0.000 in 0.00 W/m2
22:04 84.0 °F 73.0 °F 30.0 in SSE 5 mph 5 mph 70% 0.000 in 0.00 W/m2
22:09 84.0 °F 73.0 °F 30.0 in SSE 5 mph 6 mph 70% 0.000 in 0.00 W/m2
22:14 84.0 °F 73.0 °F 30.0 in SSE 5 mph 5 mph 70% 0.000 in 0.00 W/m2
22:19 83.0 °F 72.0 °F 30.0 in SSE 5 mph 6 mph 70% 0.000 in 0.00 W/m2
22:24 83.0 °F 72.0 °F 30.0 in South 5 mph 6 mph 70% 0.000 in 0.00 W/m2
22:29 83.0 °F 72.0 °F 30.0 in South 8 mph 8 mph 70% 0.000 in 0.00 W/m2
22:34 83.0 °F 72.0 °F 30.0 in SSE 4 mph 6 mph 70% 0.000 in 0.00 W/m2
22:39 82.0 °F 72.0 °F 30.0 in South 5 mph 5 mph 70% 0.000 in 0.00 W/m2
22:44 82.0 °F 71.0 °F 30.0 in South 6 mph 7 mph 70% 0.000 in 0.00 W/m2
22:49 82.0 °F 71.0 °F 30.0 in South 6 mph 7 mph 70% 0.000 in 0.00 W/m2
22:54 82.0 °F 72.0 °F 30.0 in South 6 mph 6 mph 71% 0.000 in 0.00 W/m2
22:59 82.0 °F 71.0 °F 30.0 in South 5 mph 6 mph 71% 0.000 in 0.00 W/m2
23:04 82.0 °F 71.0 °F 30.0 in South 5 mph 5 mph 71% 0.000 in 0.00 W/m2
23:09 81.0 °F 71.0 °F 30.0 in South 5 mph 5 mph 71% 0.000 in 0.00 W/m2
23:14 81.0 °F 71.0 °F 30.0 in South 5 mph 6 mph 71% 0.000 in 0.00 W/m2
23:19 81.0 °F 71.0 °F 30.0 in South 5 mph 6 mph 71% 0.000 in 0.00 W/m2
23:24 81.0 °F 71.0 °F 30.0 in South 5 mph 5 mph 72% 0.000 in 0.00 W/m2
23:29 81.0 °F 71.0 °F 30.0 in South 2 mph 5 mph 72% 0.000 in 0.00 W/m2
23:34 80.0 °F 71.0 °F 30.0 in South 4 mph 4 mph 72% 0.000 in 0.00 W/m2
23:39 80.0 °F 70.0 °F 30.0 in South 5 mph 5 mph 72% 0.000 in 0.00 W/m2
23:44 80.0 °F 71.0 °F 30.0 in SSW 4 mph 4 mph 73% 0.000 in 0.00 W/m2
23:49 80.0 °F 71.0 °F 30.0 in South 2 mph 3 mph 73% 0.000 in 0.00 W/m2
23:54 80.0 °F 71.0 °F 30.0 in South 4 mph 4 mph 74% 0.000 in 0.00 W/m2
23:59 80.0 °F 71.0 °F 30.0 in South 5 mph 6 mph 74% 0.000 in 0.00 W/m2
Villages of Bridgestone, Spring, TX USA
Compliments of Weather Underground - 4 mb